sensor_id;sensor_type;location;lat;lon;timestamp;pressure;altitude;pressure_sealevel;temperature;humidity
54512;BME280;40419;47.438;19.026;2023-04-24T00:01:03;99099.41;;;12.44;72.03
54512;BME280;40419;47.438;19.026;2023-04-24T00:03:32;99106.75;;;12.43;72.64
54512;BME280;40419;47.438;19.026;2023-04-24T00:05:58;99100.72;;;12.53;71.91
54512;BME280;40419;47.438;19.026;2023-04-24T00:08:28;99105.34;;;12.52;72.59
54512;BME280;40419;47.438;19.026;2023-04-24T00:10:56;99108.28;;;12.51;72.71
54512;BME280;40419;47.438;19.026;2023-04-24T00:13:26;99113.72;;;12.51;72.73
54512;BME280;40419;47.438;19.026;2023-04-24T00:15:57;99123.63;;;12.45;73.81
54512;BME280;40419;47.438;19.026;2023-04-24T00:18:22;99119.50;;;12.43;74.21
54512;BME280;40419;47.438;19.026;2023-04-24T00:20:50;99125.88;;;12.48;74.31
54512;BME280;40419;47.438;19.026;2023-04-24T00:23:18;99119.97;;;12.63;73.77
54512;BME280;40419;47.438;19.026;2023-04-24T00:25:46;99113.59;;;12.57;74.83
54512;BME280;40419;47.438;19.026;2023-04-24T00:28:14;99108.88;;;12.65;70.76
54512;BME280;40419;47.438;19.026;2023-04-24T00:30:42;99107.59;;;12.67;71.01
54512;BME280;40419;47.438;19.026;2023-04-24T00:33:12;99104.41;;;12.70;73.18
54512;BME280;40419;47.438;19.026;2023-04-24T00:35:43;99102.03;;;12.74;71.86
54512;BME280;40419;47.438;19.026;2023-04-24T00:38:10;99105.13;;;12.77;70.98
54512;BME280;40419;47.438;19.026;2023-04-24T00:40:35;99118.72;;;12.77;70.78
54512;BME280;40419;47.438;19.026;2023-04-24T00:43:05;99105.84;;;12.85;69.41
54512;BME280;40419;47.438;19.026;2023-04-24T00:45:31;99104.03;;;12.79;69.77
54512;BME280;40419;47.438;19.026;2023-04-24T00:47:57;99091.31;;;12.67;71.90
54512;BME280;40419;47.438;19.026;2023-04-24T00:50:24;99084.09;;;12.61;75.32
54512;BME280;40419;47.438;19.026;2023-04-24T00:52:52;99083.38;;;12.54;75.51
54512;BME280;40419;47.438;19.026;2023-04-24T00:55:18;99078.06;;;12.59;74.89
54512;BME280;40419;47.438;19.026;2023-04-24T00:57:44;99081.25;;;12.56;75.12
54512;BME280;40419;47.438;19.026;2023-04-24T01:00:15;99086.22;;;12.47;75.58
54512;BME280;40419;47.438;19.026;2023-04-24T01:02:43;99090.47;;;12.55;74.05
54512;BME280;40419;47.438;19.026;2023-04-24T01:05:13;99089.75;;;12.48;75.92
54512;BME280;40419;47.438;19.026;2023-04-24T01:07:39;99093.75;;;12.45;76.39
54512;BME280;40419;47.438;19.026;2023-04-24T01:10:07;99093.41;;;12.41;73.51
54512;BME280;40419;47.438;19.026;2023-04-24T01:12:35;99083.00;;;12.38;73.83
54512;BME280;40419;47.438;19.026;2023-04-24T01:15:05;99074.25;;;12.36;74.40
54512;BME280;40419;47.438;19.026;2023-04-24T01:17:32;99075.44;;;12.40;73.97
54512;BME280;40419;47.438;19.026;2023-04-24T01:19:58;99075.34;;;12.47;74.24
54512;BME280;40419;47.438;19.026;2023-04-24T01:22:25;99084.59;;;12.70;72.39
54512;BME280;40419;47.438;19.026;2023-04-24T01:24:52;99076.66;;;12.56;74.37
54512;BME280;40419;47.438;19.026;2023-04-24T01:27:20;99072.97;;;12.39;75.39
54512;BME280;40419;47.438;19.026;2023-04-24T01:29:48;99070.25;;;12.39;76.11
54512;BME280;40419;47.438;19.026;2023-04-24T01:32:16;99064.47;;;12.35;77.08
54512;BME280;40419;47.438;19.026;2023-04-24T01:34:45;99062.31;;;12.26;78.96
54512;BME280;40419;47.438;19.026;2023-04-24T01:37:10;99054.19;;;12.26;79.43
54512;BME280;40419;47.438;19.026;2023-04-24T01:39:38;99050.41;;;12.27;79.73
54512;BME280;40419;47.438;19.026;2023-04-24T01:42:06;99031.41;;;12.27;81.32
54512;BME280;40419;47.438;19.026;2023-04-24T01:44:35;99010.97;;;12.12;88.32
54512;BME280;40419;47.438;19.026;2023-04-24T01:47:05;99022.28;;;12.09;91.51
54512;BME280;40419;47.438;19.026;2023-04-24T01:49:31;99026.09;;;11.78;100.00
54512;BME280;40419;47.438;19.026;2023-04-24T01:52:00;99019.44;;;11.62;100.00
54512;BME280;40419;47.438;19.026;2023-04-24T01:54:28;99013.03;;;11.56;100.00
54512;BME280;40419;47.438;19.026;2023-04-24T01:56:55;99017.31;;;11.64;100.00
54512;BME280;40419;47.438;19.026;2023-04-24T01:59:21;99022.44;;;11.42;100.00
54512;BME280;40419;47.438;19.026;2023-04-24T02:01:51;99009.88;;;11.29;100.00
54512;BME280;40419;47.438;19.026;2023-04-24T02:04:19;99010.84;;;11.34;100.00
54512;BME280;40419;47.438;19.026;2023-04-24T02:06:45;99002.13;;;11.14;100.00
54512;BME280;40419;47.438;19.026;2023-04-24T02:09:13;98997.47;;;11.21;100.00
54512;BME280;40419;47.438;19.026;2023-04-24T02:11:41;98994.00;;;11.14;100.00
54512;BME280;40419;47.438;19.026;2023-04-24T02:14:06;98984.97;;;11.20;100.00
54512;BME280;40419;47.438;19.026;2023-04-24T02:16:32;98975.88;;;11.14;100.00
54512;BME280;40419;47.438;19.026;2023-04-24T02:18:58;98988.13;;;11.17;100.00
54512;BME280;40419;47.438;19.026;2023-04-24T02:21:26;98986.50;;;11.16;100.00
54512;BME280;40419;47.438;19.026;2023-04-24T02:23:55;98981.13;;;11.28;100.00
54512;BME280;40419;47.438;19.026;2023-04-24T02:26:21;98991.56;;;11.24;100.00
54512;BME280;40419;47.438;19.026;2023-04-24T02:28:53;98989.25;;;11.09;100.00
54512;BME280;40419;47.438;19.026;2023-04-24T02:31:20;98993.94;;;11.21;100.00
54512;BME280;40419;47.438;19.026;2023-04-24T02:33:47;98995.78;;;11.20;100.00
54512;BME280;40419;47.438;19.026;2023-04-24T02:36:17;98988.56;;;11.14;100.00
54512;BME280;40419;47.438;19.026;2023-04-24T02:38:47;98989.44;;;11.14;100.00
54512;BME280;40419;47.438;19.026;2023-04-24T02:41:15;98978.72;;;11.20;100.00
54512;BME280;40419;47.438;19.026;2023-04-24T02:43:41;98979.31;;;11.22;100.00
54512;BME280;40419;47.438;19.026;2023-04-24T02:46:07;98978.25;;;11.23;100.00
54512;BME280;40419;47.438;19.026;2023-04-24T02:48:32;98977.28;;;11.17;100.00
54512;BME280;40419;47.438;19.026;2023-04-24T02:50:58;98970.75;;;11.25;100.00
54512;BME280;40419;47.438;19.026;2023-04-24T02:53:24;98973.81;;;11.28;100.00
54512;BME280;40419;47.438;19.026;2023-04-24T02:55:52;98978.66;;;11.26;100.00
54512;BME280;40419;47.438;19.026;2023-04-24T02:58:17;98983.44;;;11.24;100.00
54512;BME280;40419;47.438;19.026;2023-04-24T03:00:48;98979.94;;;11.24;100.00
54512;BME280;40419;47.438;19.026;2023-04-24T03:03:18;98973.06;;;11.21;100.00
54512;BME280;40419;47.438;19.026;2023-04-24T03:05:48;98967.72;;;11.33;100.00
54512;BME280;40419;47.438;19.026;2023-04-24T03:08:16;98967.84;;;11.38;100.00
54512;BME280;40419;47.438;19.026;2023-04-24T03:10:42;98970.31;;;11.40;100.00
54512;BME280;40419;47.438;19.026;2023-04-24T03:13:08;98968.53;;;11.33;100.00
54512;BME280;40419;47.438;19.026;2023-04-24T03:15:38;98970.66;;;11.31;100.00
54512;BME280;40419;47.438;19.026;2023-04-24T03:18:04;98968.75;;;11.32;100.00
54512;BME280;40419;47.438;19.026;2023-04-24T03:20:32;98960.72;;;11.25;100.00
54512;BME280;40419;47.438;19.026;2023-04-24T03:22:58;98968.16;;;11.30;100.00
54512;BME280;40419;47.438;19.026;2023-04-24T03:25:31;98969.31;;;11.22;100.00
54512;BME280;40419;47.438;19.026;2023-04-24T03:28:02;98971.78;;;11.24;100.00
54512;BME280;40419;47.438;19.026;2023-04-24T03:30:37;98967.94;;;11.31;100.00
54512;BME280;40419;47.438;19.026;2023-04-24T03:33:03;98963.25;;;11.39;100.00
54512;BME280;40419;47.438;19.026;2023-04-24T03:35:35;98959.22;;;11.29;100.00
54512;BME280;40419;47.438;19.026;2023-04-24T03:38:10;98963.50;;;11.37;100.00
54512;BME280;40419;47.438;19.026;2023-04-24T03:40:48;98970.13;;;11.23;100.00
54512;BME280;40419;47.438;19.026;2023-04-24T03:43:34;98966.38;;;11.24;100.00
54512;BME280;40419;47.438;19.026;2023-04-24T03:46:03;98965.91;;;11.27;100.00
54512;BME280;40419;47.438;19.026;2023-04-24T03:48:32;98958.53;;;11.15;100.00
54512;BME280;40419;47.438;19.026;2023-04-24T03:50:58;98956.59;;;11.23;100.00
54512;BME280;40419;47.438;19.026;2023-04-24T03:53:27;98953.81;;;11.29;100.00
54512;BME280;40419;47.438;19.026;2023-04-24T03:55:55;98949.16;;;11.18;100.00
54512;BME280;40419;47.438;19.026;2023-04-24T03:58:22;98945.00;;;11.15;100.00
54512;BME280;40419;47.438;19.026;2023-04-24T04:00:48;98945.63;;;11.17;100.00
54512;BME280;40419;47.438;19.026;2023-04-24T04:03:40;98953.34;;;11.14;100.00
54512;BME280;40419;47.438;19.026;2023-04-24T04:06:11;98949.16;;;11.18;100.00
54512;BME280;40419;47.438;19.026;2023-04-24T04:08:38;98937.50;;;11.17;100.00
54512;BME280;40419;47.438;19.026;2023-04-24T04:11:04;98954.72;;;11.23;100.00
54512;BME280;40419;47.438;19.026;2023-04-24T04:13:35;98959.06;;;11.24;100.00
54512;BME280;40419;47.438;19.026;2023-04-24T04:16:01;98973.03;;;11.40;100.00
54512;BME280;40419;47.438;19.026;2023-04-24T04:18:29;98980.44;;;11.32;100.00
54512;BME280;40419;47.438;19.026;2023-04-24T04:20:55;98976.19;;;11.37;100.00
54512;BME280;40419;47.438;19.026;2023-04-24T04:23:24;98971.38;;;11.39;100.00
54512;BME280;40419;47.438;19.026;2023-04-24T04:26:11;98968.00;;;11.43;100.00
54512;BME280;40419;47.438;19.026;2023-04-24T04:28:58;98956.28;;;11.43;100.00
54512;BME280;40419;47.438;19.026;2023-04-24T04:31:26;98947.72;;;11.46;100.00
54512;BME280;40419;47.438;19.026;2023-04-24T04:33:51;98960.03;;;11.60;100.00
54512;BME280;40419;47.438;19.026;2023-04-24T04:36:22;98959.66;;;11.57;100.00
54512;BME280;40419;47.438;19.026;2023-04-24T04:38:53;98964.63;;;11.60;100.00
54512;BME280;40419;47.438;19.026;2023-04-24T04:41:40;98952.81;;;11.54;100.00
54512;BME280;40419;47.438;19.026;2023-04-24T04:44:10;98958.34;;;11.47;100.00
54512;BME280;40419;47.438;19.026;2023-04-24T04:46:39;98951.34;;;11.40;100.00
54512;BME280;40419;47.438;19.026;2023-04-24T04:49:21;98948.78;;;11.45;100.00
54512;BME280;40419;47.438;19.026;2023-04-24T04:51:52;98950.97;;;11.66;100.00
54512;BME280;40419;47.438;19.026;2023-04-24T04:54:21;98956.03;;;11.63;100.00
54512;BME280;40419;47.438;19.026;2023-04-24T04:56:50;98946.13;;;11.57;100.00
54512;BME280;40419;47.438;19.026;2023-04-24T04:59:18;98946.66;;;11.47;100.00
54512;BME280;40419;47.438;19.026;2023-04-24T05:01:49;98947.97;;;11.56;100.00
54512;BME280;40419;47.438;19.026;2023-04-24T05:04:16;98942.25;;;11.64;100.00
54512;BME280;40419;47.438;19.026;2023-04-24T05:06:42;98952.16;;;11.70;100.00
54512;BME280;40419;47.438;19.026;2023-04-24T05:09:12;98941.41;;;11.76;100.00
54512;BME280;40419;47.438;19.026;2023-04-24T05:11:46;98942.69;;;11.61;100.00
54512;BME280;40419;47.438;19.026;2023-04-24T05:14:12;98938.81;;;11.69;100.00
54512;BME280;40419;47.438;19.026;2023-04-24T05:16:39;98940.94;;;11.79;100.00
54512;BME280;40419;47.438;19.026;2023-04-24T05:19:06;98937.66;;;11.77;100.00
54512;BME280;40419;47.438;19.026;2023-04-24T05:21:35;98944.97;;;11.88;100.00
54512;BME280;40419;47.438;19.026;2023-04-24T05:24:05;98948.81;;;11.99;100.00
54512;BME280;40419;47.438;19.026;2023-04-24T05:26:53;98948.13;;;12.03;100.00
54512;BME280;40419;47.438;19.026;2023-04-24T05:29:24;98938.88;;;12.04;100.00
54512;BME280;40419;47.438;19.026;2023-04-24T05:31:52;98940.44;;;12.00;100.00
54512;BME280;40419;47.438;19.026;2023-04-24T05:34:19;98944.91;;;11.95;100.00
54512;BME280;40419;47.438;19.026;2023-04-24T05:36:48;98944.78;;;12.01;100.00
54512;BME280;40419;47.438;19.026;2023-04-24T05:39:17;98946.09;;;12.11;100.00
54512;BME280;40419;47.438;19.026;2023-04-24T05:41:43;98957.78;;;11.99;100.00
54512;BME280;40419;47.438;19.026;2023-04-24T05:44:08;98957.56;;;12.13;100.00
54512;BME280;40419;47.438;19.026;2023-04-24T05:46:34;98954.25;;;11.99;100.00
54512;BME280;40419;47.438;19.026;2023-04-24T05:49:03;98951.28;;;12.00;100.00
54512;BME280;40419;47.438;19.026;2023-04-24T05:51:32;98950.34;;;12.07;100.00
54512;BME280;40419;47.438;19.026;2023-04-24T05:54:00;98952.00;;;12.19;100.00
54512;BME280;40419;47.438;19.026;2023-04-24T05:56:28;98962.84;;;12.08;100.00
54512;BME280;40419;47.438;19.026;2023-04-24T05:58:59;98964.16;;;12.40;100.00
54512;BME280;40419;47.438;19.026;2023-04-24T06:01:29;98948.72;;;12.29;100.00
54512;BME280;40419;47.438;19.026;2023-04-24T06:04:05;98957.66;;;12.41;100.00
54512;BME280;40419;47.438;19.026;2023-04-24T06:06:33;98959.06;;;12.56;100.00
54512;BME280;40419;47.438;19.026;2023-04-24T06:09:00;98966.28;;;12.62;100.00
54512;BME280;40419;47.438;19.026;2023-04-24T06:11:26;98961.88;;;12.73;100.00
54512;BME280;40419;47.438;19.026;2023-04-24T06:13:52;98971.91;;;12.84;100.00
54512;BME280;40419;47.438;19.026;2023-04-24T06:16:36;98967.91;;;12.63;100.00
54512;BME280;40419;47.438;19.026;2023-04-24T06:19:12;98960.31;;;12.77;100.00
54512;BME280;40419;47.438;19.026;2023-04-24T06:21:38;98963.31;;;12.64;100.00
54512;BME280;40419;47.438;19.026;2023-04-24T06:24:08;98974.19;;;12.52;100.00
54512;BME280;40419;47.438;19.026;2023-04-24T06:26:37;98964.50;;;12.56;100.00
54512;BME280;40419;47.438;19.026;2023-04-24T06:29:11;98973.72;;;12.55;100.00
54512;BME280;40419;47.438;19.026;2023-04-24T06:31:39;98962.38;;;12.34;100.00
54512;BME280;40419;47.438;19.026;2023-04-24T06:34:07;98964.63;;;12.37;100.00
54512;BME280;40419;47.438;19.026;2023-04-24T06:36:38;98961.19;;;12.54;100.00
54512;BME280;40419;47.438;19.026;2023-04-24T06:39:03;98960.97;;;12.55;100.00
54512;BME280;40419;47.438;19.026;2023-04-24T06:41:31;98954.88;;;12.77;100.00
54512;BME280;40419;47.438;19.026;2023-04-24T06:43:59;98959.28;;;12.66;100.00
54512;BME280;40419;47.438;19.026;2023-04-24T06:46:27;98962.28;;;12.93;100.00
54512;BME280;40419;47.438;19.026;2023-04-24T06:48:57;98956.78;;;12.88;100.00
54512;BME280;40419;47.438;19.026;2023-04-24T06:51:24;98957.34;;;13.31;100.00
54512;BME280;40419;47.438;19.026;2023-04-24T06:53:54;98953.88;;;13.07;100.00
54512;BME280;40419;47.438;19.026;2023-04-24T06:56:21;98953.63;;;13.08;100.00
54512;BME280;40419;47.438;19.026;2023-04-24T06:58:47;98946.84;;;13.23;100.00
54512;BME280;40419;47.438;19.026;2023-04-24T07:01:13;98944.88;;;13.18;100.00
54512;BME280;40419;47.438;19.026;2023-04-24T07:03:42;98952.69;;;13.43;100.00
54512;BME280;40419;47.438;19.026;2023-04-24T07:06:07;98949.09;;;13.55;100.00
54512;BME280;40419;47.438;19.026;2023-04-24T07:08:35;98943.03;;;13.36;100.00
54512;BME280;40419;47.438;19.026;2023-04-24T07:11:02;98943.66;;;13.26;100.00
54512;BME280;40419;47.438;19.026;2023-04-24T07:13:28;98947.50;;;13.42;100.00
54512;BME280;40419;47.438;19.026;2023-04-24T07:15:53;98953.75;;;13.14;100.00
54512;BME280;40419;47.438;19.026;2023-04-24T07:18:23;98958.41;;;13.30;100.00
54512;BME280;40419;47.438;19.026;2023-04-24T07:20:49;98950.72;;;13.27;100.00
54512;BME280;40419;47.438;19.026;2023-04-24T07:23:18;98948.41;;;13.19;100.00
54512;BME280;40419;47.438;19.026;2023-04-24T07:25:46;98944.38;;;13.21;100.00
54512;BME280;40419;47.438;19.026;2023-04-24T07:28:18;98937.63;;;13.24;100.00
54512;BME280;40419;47.438;19.026;2023-04-24T07:30:48;98939.50;;;13.35;100.00
54512;BME280;40419;47.438;19.026;2023-04-24T07:33:13;98931.28;;;13.47;100.00
54512;BME280;40419;47.438;19.026;2023-04-24T07:35:42;98941.41;;;13.35;100.00
54512;BME280;40419;47.438;19.026;2023-04-24T07:38:07;98941.78;;;13.72;100.00
54512;BME280;40419;47.438;19.026;2023-04-24T07:40:35;98946.50;;;13.77;100.00
54512;BME280;40419;47.438;19.026;2023-04-24T07:43:06;98942.06;;;13.88;100.00
54512;BME280;40419;47.438;19.026;2023-04-24T07:45:31;98950.53;;;13.91;100.00
54512;BME280;40419;47.438;19.026;2023-04-24T07:48:01;98951.63;;;14.07;100.00
54512;BME280;40419;47.438;19.026;2023-04-24T07:50:26;98950.91;;;14.34;100.00
54512;BME280;40419;47.438;19.026;2023-04-24T07:52:57;98955.00;;;14.53;100.00
54512;BME280;40419;47.438;19.026;2023-04-24T07:55:22;98961.72;;;14.46;100.00
54512;BME280;40419;47.438;19.026;2023-04-24T07:57:48;98958.47;;;14.66;100.00
54512;BME280;40419;47.438;19.026;2023-04-24T08:00:16;98962.84;;;14.67;100.00
54512;BME280;40419;47.438;19.026;2023-04-24T08:02:42;98955.09;;;14.59;100.00
54512;BME280;40419;47.438;19.026;2023-04-24T08:05:12;98953.38;;;14.52;100.00
54512;BME280;40419;47.438;19.026;2023-04-24T08:07:40;98945.63;;;14.44;100.00
54512;BME280;40419;47.438;19.026;2023-04-24T08:10:10;98949.50;;;14.48;100.00
54512;BME280;40419;47.438;19.026;2023-04-24T08:12:38;98943.22;;;14.87;100.00
54512;BME280;40419;47.438;19.026;2023-04-24T08:15:05;98937.50;;;14.88;100.00
54512;BME280;40419;47.438;19.026;2023-04-24T08:17:36;98943.34;;;14.97;100.00
54512;BME280;40419;47.438;19.026;2023-04-24T08:20:03;98948.03;;;15.02;100.00
54512;BME280;40419;47.438;19.026;2023-04-24T08:22:30;98944.53;;;15.06;100.00
54512;BME280;40419;47.438;19.026;2023-04-24T08:24:59;98944.00;;;15.04;100.00
54512;BME280;40419;47.438;19.026;2023-04-24T08:27:25;98947.28;;;15.06;100.00
54512;BME280;40419;47.438;19.026;2023-04-24T08:29:54;98937.06;;;15.19;100.00
54512;BME280;40419;47.438;19.026;2023-04-24T08:32:19;98936.50;;;15.44;100.00
54512;BME280;40419;47.438;19.026;2023-04-24T08:34:45;98943.88;;;15.44;100.00
54512;BME280;40419;47.438;19.026;2023-04-24T08:37:13;98945.97;;;15.36;100.00
54512;BME280;40419;47.438;19.026;2023-04-24T08:39:43;98934.66;;;15.50;100.00
54512;BME280;40419;47.438;19.026;2023-04-24T08:42:12;98945.28;;;15.46;100.00
54512;BME280;40419;47.438;19.026;2023-04-24T08:44:40;98940.63;;;15.47;100.00
54512;BME280;40419;47.438;19.026;2023-04-24T08:47:10;98942.94;;;15.60;100.00
54512;BME280;40419;47.438;19.026;2023-04-24T08:49:36;98953.13;;;15.70;100.00
54512;BME280;40419;47.438;19.026;2023-04-24T08:52:02;98942.41;;;15.58;100.00
54512;BME280;40419;47.438;19.026;2023-04-24T08:54:31;98951.09;;;15.82;97.29
54512;BME280;40419;47.438;19.026;2023-04-24T08:57:00;98951.69;;;15.89;99.97
54512;BME280;40419;47.438;19.026;2023-04-24T08:59:34;98940.34;;;16.03;97.37
54512;BME280;40419;47.438;19.026;2023-04-24T09:02:06;98939.94;;;15.89;97.44
54512;BME280;40419;47.438;19.026;2023-04-24T09:04:35;98935.28;;;15.84;97.72
54512;BME280;40419;47.438;19.026;2023-04-24T09:07:02;98941.34;;;15.91;97.87
54512;BME280;40419;47.438;19.026;2023-04-24T09:09:32;98932.94;;;15.98;98.63
54512;BME280;40419;47.438;19.026;2023-04-24T09:12:01;98936.47;;;16.36;94.02
54512;BME280;40419;47.438;19.026;2023-04-24T09:14:32;98932.31;;;16.76;91.94
54512;BME280;40419;47.438;19.026;2023-04-24T09:17:00;98932.19;;;17.09;89.82
54512;BME280;40419;47.438;19.026;2023-04-24T09:19:28;98923.28;;;17.44;89.57
54512;BME280;40419;47.438;19.026;2023-04-24T09:21:56;98932.31;;;17.55;83.57
54512;BME280;40419;47.438;19.026;2023-04-24T09:24:24;98927.91;;;17.33;86.52
54512;BME280;40419;47.438;19.026;2023-04-24T09:26:56;98929.56;;;17.45;83.81
54512;BME280;40419;47.438;19.026;2023-04-24T09:29:29;98930.16;;;17.73;84.50
54512;BME280;40419;47.438;19.026;2023-04-24T09:31:57;98928.50;;;17.71;83.42
54512;BME280;40419;47.438;19.026;2023-04-24T09:34:26;98918.41;;;17.93;85.00
54512;BME280;40419;47.438;19.026;2023-04-24T09:36:55;98912.66;;;17.94;83.46
54512;BME280;40419;47.438;19.026;2023-04-24T09:39:23;98912.06;;;17.77;82.07
54512;BME280;40419;47.438;19.026;2023-04-24T09:41:53;98918.34;;;17.62;85.87
54512;BME280;40419;47.438;19.026;2023-04-24T09:44:23;98915.38;;;17.68;82.09
54512;BME280;40419;47.438;19.026;2023-04-24T09:46:57;98912.34;;;17.85;80.87
54512;BME280;40419;47.438;19.026;2023-04-24T09:49:30;98915.09;;;17.65;83.42
54512;BME280;40419;47.438;19.026;2023-04-24T09:52:08;98901.97;;;17.77;81.78
54512;BME280;40419;47.438;19.026;2023-04-24T09:54:37;98904.16;;;17.70;82.73
54512;BME280;40419;47.438;19.026;2023-04-24T09:57:09;98896.50;;;17.87;82.75
54512;BME280;40419;47.438;19.026;2023-04-24T09:59:42;98898.41;;;17.66;78.64
54512;BME280;40419;47.438;19.026;2023-04-24T10:02:21;98904.94;;;17.40;81.19
54512;BME280;40419;47.438;19.026;2023-04-24T10:04:56;98901.66;;;17.43;81.69
54512;BME280;40419;47.438;19.026;2023-04-24T10:07:26;98900.59;;;17.59;80.55
54512;BME280;40419;47.438;19.026;2023-04-24T10:09:52;98901.41;;;17.60;78.19
54512;BME280;40419;47.438;19.026;2023-04-24T10:12:23;98908.22;;;17.42;80.52
54512;BME280;40419;47.438;19.026;2023-04-24T10:14:50;98898.13;;;17.83;82.23
54512;BME280;40419;47.438;19.026;2023-04-24T10:17:18;98897.56;;;17.86;77.17
54512;BME280;40419;47.438;19.026;2023-04-24T10:19:45;98904.97;;;17.76;75.02
54512;BME280;40419;47.438;19.026;2023-04-24T10:22:14;98896.72;;;17.86;77.90
54512;BME280;40419;47.438;19.026;2023-04-24T10:24:44;98904.97;;;17.70;78.84
54512;BME280;40419;47.438;19.026;2023-04-24T10:27:11;98907.44;;;17.82;79.23
54512;BME280;40419;47.438;19.026;2023-04-24T10:29:41;98897.03;;;17.74;79.47
54512;BME280;40419;47.438;19.026;2023-04-24T10:32:08;98884.97;;;17.60;81.12
54512;BME280;40419;47.438;19.026;2023-04-24T10:34:35;98890.16;;;17.51;82.97
54512;BME280;40419;47.438;19.026;2023-04-24T10:37:02;98887.97;;;17.74;82.13
54512;BME280;40419;47.438;19.026;2023-04-24T10:39:30;98893.50;;;17.89;80.97
54512;BME280;40419;47.438;19.026;2023-04-24T10:42:01;98892.09;;;18.07;81.12
54512;BME280;40419;47.438;19.026;2023-04-24T10:44:36;98894.03;;;17.96;79.48
54512;BME280;40419;47.438;19.026;2023-04-24T10:47:04;98887.97;;;18.20;80.73
54512;BME280;40419;47.438;19.026;2023-04-24T10:49:34;98895.31;;;18.40;79.75
54512;BME280;40419;47.438;19.026;2023-04-24T10:52:02;98880.06;;;18.08;78.58
54512;BME280;40419;47.438;19.026;2023-04-24T10:54:30;98880.06;;;17.98;78.58
54512;BME280;40419;47.438;19.026;2023-04-24T10:59:43;98881.94;;;18.33;73.53
54512;BME280;40419;47.438;19.026;2023-04-24T11:02:09;98871.06;;;18.83;74.28
54512;BME280;40419;47.438;19.026;2023-04-24T11:04:35;98875.19;;;18.86;70.25
54512;BME280;40419;47.438;19.026;2023-04-24T11:07:02;98868.88;;;18.75;73.55
54512;BME280;40419;47.438;19.026;2023-04-24T11:09:30;98864.47;;;18.84;73.70
54512;BME280;40419;47.438;19.026;2023-04-24T11:12:04;98866.66;;;18.92;72.46
54512;BME280;40419;47.438;19.026;2023-04-24T11:17:30;98862.19;;;18.36;74.35
54512;BME280;40419;47.438;19.026;2023-04-24T11:20:07;98863.31;;;18.20;77.22
54512;BME280;40419;47.438;19.026;2023-04-24T11:22:38;98861.91;;;18.38;75.74
54512;BME280;40419;47.438;19.026;2023-04-24T11:25:08;98860.00;;;18.33;75.14
54512;BME280;40419;47.438;19.026;2023-04-24T11:27:45;98856.97;;;18.40;76.21
54512;BME280;40419;47.438;19.026;2023-04-24T11:30:17;98850.66;;;18.39;77.77
54512;BME280;40419;47.438;19.026;2023-04-24T11:32:50;98855.81;;;18.62;76.63
54512;BME280;40419;47.438;19.026;2023-04-24T11:35:20;98853.38;;;18.45;79.64
54512;BME280;40419;47.438;19.026;2023-04-24T11:37:48;98843.66;;;18.78;78.31
54512;BME280;40419;47.438;19.026;2023-04-24T11:40:18;98851.47;;;19.10;77.28
54512;BME280;40419;47.438;19.026;2023-04-24T11:42:53;98851.56;;;18.95;75.47
54512;BME280;40419;47.438;19.026;2023-04-24T11:45:24;98840.09;;;18.83;75.87
54512;BME280;40419;47.438;19.026;2023-04-24T11:47:52;98836.72;;;19.01;77.51
54512;BME280;40419;47.438;19.026;2023-04-24T11:50:25;98832.88;;;18.97;73.23
54512;BME280;40419;47.438;19.026;2023-04-24T11:52:55;98830.66;;;19.04;74.53
54512;BME280;40419;47.438;19.026;2023-04-24T11:57:51;98826.16;;;19.24;69.55
54512;BME280;40419;47.438;19.026;2023-04-24T12:00:25;98824.50;;;19.57;67.92
54512;BME280;40419;47.438;19.026;2023-04-24T12:02:52;98818.59;;;19.74;66.25
54512;BME280;40419;47.438;19.026;2023-04-24T12:05:33;98818.03;;;19.77;71.67
54512;BME280;40419;47.438;19.026;2023-04-24T12:08:01;98809.94;;;19.91;71.36
54512;BME280;40419;47.438;19.026;2023-04-24T12:10:31;98809.00;;;19.72;74.52
54512;BME280;40419;47.438;19.026;2023-04-24T12:12:58;98815.91;;;19.35;75.82
54512;BME280;40419;47.438;19.026;2023-04-24T12:15:26;98820.44;;;19.15;75.55
54512;BME280;40419;47.438;19.026;2023-04-24T12:17:53;98815.13;;;18.89;77.70
54512;BME280;40419;47.438;19.026;2023-04-24T12:20:26;98805.97;;;18.99;77.35
54512;BME280;40419;47.438;19.026;2023-04-24T12:22:56;98814.81;;;18.91;77.69
54512;BME280;40419;47.438;19.026;2023-04-24T12:25:23;98803.34;;;18.89;79.93
54512;BME280;40419;47.438;19.026;2023-04-24T12:28:09;98802.22;;;19.29;77.97
54512;BME280;40419;47.438;19.026;2023-04-24T12:30:43;98795.66;;;19.25;77.39
54512;BME280;40419;47.438;19.026;2023-04-24T12:33:20;98795.22;;;19.47;76.99
54512;BME280;40419;47.438;19.026;2023-04-24T12:35:48;98788.47;;;19.35;77.45
54512;BME280;40419;47.438;19.026;2023-04-24T12:38:16;98783.47;;;19.07;75.18
54512;BME280;40419;47.438;19.026;2023-04-24T12:40:46;98784.97;;;18.79;76.21
54512;BME280;40419;47.438;19.026;2023-04-24T12:43:19;98786.84;;;18.84;75.01
54512;BME280;40419;47.438;19.026;2023-04-24T12:45:48;98776.50;;;18.75;76.18
54512;BME280;40419;47.438;19.026;2023-04-24T12:48:16;98782.31;;;18.64;78.27
54512;BME280;40419;47.438;19.026;2023-04-24T12:50:42;98780.69;;;18.63;79.37
54512;BME280;40419;47.438;19.026;2023-04-24T12:53:08;98770.81;;;18.01;85.16
54512;BME280;40419;47.438;19.026;2023-04-24T12:55:38;98776.00;;;17.98;83.41
54512;BME280;40419;47.438;19.026;2023-04-24T12:58:04;98772.22;;;17.63;85.61
54512;BME280;40419;47.438;19.026;2023-04-24T13:00:33;98764.25;;;17.92;84.12
54512;BME280;40419;47.438;19.026;2023-04-24T13:02:58;98767.03;;;17.66;84.98